createdAt,value
2022-11-09T00:00:00.782Z,100256.47
2022-11-09T00:01:06.325Z,100258.44
2022-11-09T00:02:07.926Z,100259.28
2022-11-09T00:03:10.523Z,100252.25
2022-11-09T00:04:12.161Z,100252.25
2022-11-09T00:05:14.632Z,100247.75
2022-11-09T00:06:16.157Z,100245.94
2022-11-09T00:07:18.659Z,100253.09
2022-11-09T00:08:20.250Z,100248.78
2022-11-09T00:09:23.918Z,100249.78
2022-11-09T00:10:25.519Z,100252.59
2022-11-09T00:11:28.060Z,100245.59
2022-11-09T00:12:30.959Z,100241.25
2022-11-09T00:13:36.550Z,100252.06
2022-11-09T00:14:38.826Z,100251.25
2022-11-09T00:15:41.337Z,100246.06
2022-11-09T00:16:44.415Z,100253.25
2022-11-09T00:17:45.979Z,100248.06
2022-11-09T00:18:48.526Z,100249.06
2022-11-09T00:19:52.093Z,100247.38
2022-11-09T00:20:55.224Z,100244.06
2022-11-09T00:21:56.741Z,100243.34
2022-11-09T00:22:59.481Z,100244.38
2022-11-09T00:24:01.048Z,100234.88
2022-11-09T00:25:03.546Z,100239.34
2022-11-09T00:26:07.113Z,100234.16
2022-11-09T00:27:11.873Z,100244.84
2022-11-09T00:28:16.972Z,100236.31
2022-11-09T00:29:19.516Z,100242.69
2022-11-09T00:30:21.223Z,100238.31
2022-11-09T00:31:25.378Z,100234.97
2022-11-09T00:32:28.064Z,100225.31
2022-11-09T00:33:30.816Z,100238.66
2022-11-09T00:34:33.333Z,100225.44
2022-11-09T00:35:37.986Z,100219.28
2022-11-09T00:36:40.861Z,100224.78
2022-11-09T00:37:42.986Z,100224.94
2022-11-09T00:38:49.932Z,100224.94
2022-11-09T00:39:51.494Z,100222.44
2022-11-09T00:40:54.019Z,100227.78
2022-11-09T00:41:55.591Z,100231.28
2022-11-09T00:42:58.106Z,100224.09
2022-11-09T00:44:02.003Z,100224.28
2022-11-09T00:45:04.849Z,100225.25
2022-11-09T00:46:07.361Z,100226.28
2022-11-09T00:47:09.101Z,100220.94
2022-11-09T00:48:11.627Z,100219.25
2022-11-09T00:49:13.181Z,100219.25
2022-11-09T00:50:16.045Z,100223.75
2022-11-09T00:51:18.925Z,100225.56
2022-11-09T00:52:21.495Z,100227.25
2022-11-09T00:53:24.370Z,100221.09
2022-11-09T00:54:26.874Z,100223.59
2022-11-09T00:55:28.403Z,100231.44
2022-11-09T00:56:31.068Z,100221.59
2022-11-09T00:57:32.593Z,100228.63
2022-11-09T00:58:36.746Z,100230.13
2022-11-09T00:59:39.656Z,100228.28
2022-11-09T01:00:42.173Z,100236.97
2022-11-09T01:01:43.742Z,100227.13
2022-11-09T01:02:46.243Z,100231.31
2022-11-09T01:03:49.068Z,100227.66
2022-11-09T01:04:51.193Z,100237.47
2022-11-09T01:05:54.181Z,100239.16
2022-11-09T01:06:55.796Z,100233.81
2022-11-09T01:07:58.340Z,100228.31
2022-11-09T01:08:59.855Z,100235.47
2022-11-09T01:10:02.503Z,100227.31
2022-11-09T01:11:06.190Z,100233.50
2022-11-09T01:12:08.700Z,100233.50
2022-11-09T01:13:11.766Z,100238.00
2022-11-09T01:14:14.349Z,100245.16
2022-11-09T01:15:17.465Z,100240.00
2022-11-09T01:16:23.375Z,100238.31
2022-11-09T01:17:25.334Z,100250.69
2022-11-09T01:18:27.917Z,100243.81
2022-11-09T01:19:29.465Z,100248.31
2022-11-09T01:20:32.036Z,100245.81
2022-11-09T01:21:34.521Z,100248.47
2022-11-09T01:22:36.018Z,100252.97
2022-11-09T01:23:40.244Z,100253.97
2022-11-09T01:24:41.938Z,100259.31
2022-11-09T01:25:45.177Z,100263.00
2022-11-09T01:26:46.661Z,100263.97
2022-11-09T01:27:49.132Z,100271.00
2022-11-09T01:28:51.679Z,100261.44
2022-11-09T01:29:53.244Z,100260.66
2022-11-09T01:30:57.207Z,100263.47
2022-11-09T01:31:59.735Z,100267.94
2022-11-09T01:33:03.127Z,100264.63
2022-11-09T01:34:05.701Z,100268.28
2022-11-09T01:35:07.973Z,100260.44
2022-11-09T01:36:12.754Z,100262.28
2022-11-09T01:37:14.276Z,100266.91
2022-11-09T01:38:16.766Z,100264.41
2022-11-09T01:39:19.874Z,100267.22
2022-11-09T01:40:22.469Z,100268.25
2022-11-09T01:41:26.243Z,100266.38
2022-11-09T01:42:30.599Z,100267.22
2022-11-09T01:43:32.344Z,100263.56
2022-11-09T01:44:38.739Z,100271.44
2022-11-09T01:45:40.944Z,100266.09
2022-11-09T01:46:50.678Z,100267.94
2022-11-09T01:47:56.897Z,100270.59
2022-11-09T01:49:02.874Z,100256.56
2022-11-09T01:50:04.896Z,100265.59
2022-11-09T01:51:13.511Z,100269.22
2022-11-09T01:52:20.456Z,100265.91
2022-11-09T01:53:28.670Z,100261.53
2022-11-09T01:54:36.459Z,100262.53
2022-11-09T01:55:38.209Z,100261.03
2022-11-09T01:56:42.035Z,100261.16
2022-11-09T01:57:49.664Z,100257.84
2022-11-09T01:58:57.791Z,100257.97
2022-11-09T02:00:07.396Z,100262.66
2022-11-09T02:01:11.445Z,100262.97
2022-11-09T02:02:14.708Z,100264.78
2022-11-09T02:03:22.438Z,100256.13
2022-11-09T02:04:29.768Z,100252.75
2022-11-09T02:05:35.464Z,100260.75
2022-11-09T02:06:37.057Z,100253.91
2022-11-09T02:07:42.319Z,100254.94
2022-11-09T02:08:46.166Z,100253.06
2022-11-09T02:09:54.649Z,100251.25
2022-11-09T02:11:04.395Z,100250.41
2022-11-09T02:12:08.226Z,100257.41
2022-11-09T02:13:12.601Z,100251.25
2022-11-09T02:14:15.862Z,100256.56
2022-11-09T02:15:18.871Z,100262.59
2022-11-09T02:16:21.730Z,100257.28
2022-11-09T02:17:26.297Z,100260.75
2022-11-09T02:18:29.648Z,100264.25
2022-11-09T02:19:31.623Z,100265.28
2022-11-09T02:20:47.178Z,100255.41
2022-11-09T02:21:48.929Z,100263.59
2022-11-09T02:22:52.111Z,100263.59
2022-11-09T02:23:54.794Z,100267.09
2022-11-09T02:24:57.313Z,100263.59
2022-11-09T02:26:04.586Z,100262.75
2022-11-09T02:27:07.188Z,100262.75
2022-11-09T02:28:09.655Z,100260.25
2022-11-09T02:29:14.226Z,100259.09
2022-11-09T02:30:17.425Z,100262.75
2022-11-09T02:31:20.068Z,100261.06
2022-11-09T02:32:28.631Z,100261.91
2022-11-09T02:33:30.222Z,100260.09
2022-11-09T02:34:32.750Z,100255.75
2022-11-09T02:35:34.335Z,100248.75
2022-11-09T02:36:38.446Z,100256.56
2022-11-09T02:37:45.103Z,100260.25
2022-11-09T02:38:47.560Z,100250.56
2022-11-09T02:39:49.102Z,100254.09
2022-11-09T02:40:53.450Z,100256.75
2022-11-09T02:42:02.952Z,100263.75
2022-11-09T02:43:07.665Z,100259.41
2022-11-09T02:44:10.640Z,100254.09
2022-11-09T02:45:12.300Z,100261.06
2022-11-09T02:46:14.924Z,100257.41
2022-11-09T02:47:16.519Z,100262.59
2022-11-09T02:48:19.098Z,100255.41
2022-11-09T02:49:20.683Z,100254.44
2022-11-09T02:50:23.206Z,100262.44
2022-11-09T02:51:24.809Z,100255.94
2022-11-09T02:52:29.642Z,100263.81
2022-11-09T02:53:31.876Z,100260.16
2022-11-09T02:54:34.828Z,100253.81
2022-11-09T02:55:36.506Z,100257.16
2022-11-09T02:56:39.054Z,100263.31
2022-11-09T02:57:40.686Z,100259.53
2022-11-09T02:58:43.143Z,100268.19
2022-11-09T02:59:44.707Z,100261.03
2022-11-09T03:00:47.284Z,100260.84
2022-11-09T03:01:48.927Z,100263.38
2022-11-09T03:02:51.407Z,100264.88
2022-11-09T03:03:53.276Z,100265.06
2022-11-09T03:04:55.798Z,100260.56
2022-11-09T03:05:57.365Z,100272.03
2022-11-09T03:06:59.898Z,100267.56
2022-11-09T03:08:02.864Z,100267.56
2022-11-09T03:09:07.034Z,100272.03
2022-11-09T03:10:09.644Z,100268.56
2022-11-09T03:11:12.154Z,100271.22
2022-11-09T03:12:31.853Z,100267.56
2022-11-09T03:13:34.908Z,100270.22
2022-11-09T03:14:36.419Z,100273.72
2022-11-09T03:15:39.466Z,100260.38
2022-11-09T03:16:41.100Z,100265.59
2022-11-09T03:17:44.080Z,100271.72
2022-11-09T03:18:45.586Z,100263.56
2022-11-09T03:19:48.170Z,100269.59
2022-11-09T03:20:49.783Z,100266.25
2022-11-09T03:21:52.278Z,100266.91
2022-11-09T03:22:57.740Z,100268.59
2022-11-09T03:24:01.652Z,100272.09
2022-11-09T03:25:03.488Z,100275.63
2022-11-09T03:26:06.430Z,100270.28
2022-11-09T03:27:07.990Z,100265.78
2022-11-09T03:28:10.920Z,100273.63
2022-11-09T03:29:12.547Z,100272.78
2022-11-09T03:30:15.096Z,100275.28
2022-11-09T03:31:19.270Z,100268.97
2022-11-09T03:32:21.772Z,100267.94
2022-11-09T03:33:23.455Z,100273.28
2022-11-09T03:34:25.948Z,100274.13
2022-11-09T03:35:28.505Z,100274.97
2022-11-09T03:36:30.133Z,100274.00
2022-11-09T03:37:32.631Z,100279.16
2022-11-09T03:38:34.868Z,100277.31
2022-11-09T03:39:38.648Z,100278.31
2022-11-09T03:40:40.271Z,100275.50
2022-11-09T03:41:42.758Z,100279.00
2022-11-09T03:42:45.297Z,100277.19
2022-11-09T03:43:47.773Z,100284.34
2022-11-09T03:44:49.337Z,100275.50
2022-11-09T03:45:51.806Z,100282.53
2022-11-09T03:46:53.346Z,100287.00
2022-11-09T03:47:59.917Z,100284.34
2022-11-09T03:49:01.721Z,100286.16
2022-11-09T03:50:05.040Z,100289.69
2022-11-09T03:51:06.576Z,100295.03
2022-11-09T03:52:09.090Z,100300.34
2022-11-09T03:53:11.412Z,100293.19
2022-11-09T03:54:14.023Z,100294.84
2022-11-09T03:55:16.989Z,100299.19
2022-11-09T03:56:20.292Z,100294.00
2022-11-09T03:57:21.855Z,100294.00
2022-11-09T03:58:24.434Z,100294.00
2022-11-09T03:59:26.053Z,100292.34
2022-11-09T04:00:29.026Z,100296.84
2022-11-09T04:01:30.762Z,100297.50
2022-11-09T04:02:33.411Z,100293.19
2022-11-09T04:03:34.933Z,100288.66
2022-11-09T04:04:37.406Z,100294.84
2022-11-09T04:05:39.002Z,100304.69
2022-11-09T04:06:41.563Z,100301.88
2022-11-09T04:07:47.849Z,100301.03
2022-11-09T04:08:51.711Z,100301.03
2022-11-09T04:09:53.411Z,100302.72
2022-11-09T04:10:57.547Z,100308.03
2022-11-09T04:11:59.106Z,100305.19
2022-11-09T04:13:01.763Z,100302.72
2022-11-09T04:14:03.341Z,100304.34
2022-11-09T04:15:06.884Z,100301.69
2022-11-09T04:16:08.406Z,100293.69
2022-11-09T04:17:11.303Z,100299.03
2022-11-09T04:18:14.828Z,100293.69
2022-11-09T04:19:17.426Z,100297.38
2022-11-09T04:20:19.038Z,100292.88
2022-11-09T04:21:24.092Z,100304.34
2022-11-09T04:22:25.804Z,100300.03
2022-11-09T04:23:28.381Z,100301.03
2022-11-09T04:24:30.934Z,100302.72
2022-11-09T04:25:34.836Z,100300.03
2022-11-09T04:26:39.501Z,100293.00
2022-11-09T04:27:41.059Z,100303.69
2022-11-09T04:28:43.503Z,100301.69
2022-11-09T04:29:45.066Z,100294.69
2022-11-09T04:30:47.646Z,100298.22
2022-11-09T04:31:49.913Z,100296.53
2022-11-09T04:32:52.427Z,100302.72
2022-11-09T04:33:54.116Z,100309.69
2022-11-09T04:34:56.606Z,100309.88
2022-11-09T04:36:02.374Z,100300.69
2022-11-09T04:37:05.151Z,100305.19
2022-11-09T04:38:11.181Z,100307.03
2022-11-09T04:39:14.063Z,100311.38
2022-11-09T04:40:16.105Z,100315.03
2022-11-09T04:41:18.680Z,100320.38
2022-11-09T04:42:21.555Z,100316.72
2022-11-09T04:43:24.038Z,100327.41
2022-11-09T04:44:25.579Z,100328.25
2022-11-09T04:45:28.290Z,100323.75
2022-11-09T04:46:30.837Z,100325.56
2022-11-09T04:47:32.399Z,100317.56
2022-11-09T04:48:35.275Z,100325.56
2022-11-09T04:49:37.103Z,100331.75
2022-11-09T04:50:39.947Z,100327.25
2022-11-09T04:51:41.663Z,100327.25
2022-11-09T04:52:44.313Z,100328.09
2022-11-09T04:53:45.990Z,100333.13
2022-11-09T04:54:48.586Z,100336.78
2022-11-09T04:55:51.479Z,100327.91
2022-11-09T04:56:54.859Z,100330.44
2022-11-09T04:57:57.794Z,100341.13
2022-11-09T04:59:00.391Z,100340.28
2022-11-09T05:00:02.098Z,100339.44
2022-11-09T05:01:11.690Z,100338.44
2022-11-09T05:02:13.199Z,100336.78
2022-11-09T05:03:15.996Z,100333.25
2022-11-09T05:04:17.816Z,100337.75
2022-11-09T05:05:20.432Z,100346.47
2022-11-09T05:06:34.566Z,100346.59
2022-11-09T05:07:37.845Z,100335.94
2022-11-09T05:08:39.370Z,100340.41
2022-11-09T05:09:41.862Z,100337.75
2022-11-09T05:10:43.364Z,100337.75
2022-11-09T05:11:45.834Z,100337.75
2022-11-09T05:12:47.383Z,100332.41
2022-11-09T05:13:51.688Z,100341.44
2022-11-09T05:14:54.296Z,100342.44
2022-11-09T05:15:55.828Z,100345.09
2022-11-09T05:16:58.352Z,100337.09
2022-11-09T05:18:01.522Z,100341.44
2022-11-09T05:19:04.652Z,100345.94
2022-11-09T05:20:08.409Z,100336.91
2022-11-09T05:21:10.918Z,100339.59
2022-11-09T05:22:30.803Z,100342.44
2022-11-09T05:23:56.357Z,100346.78
2022-11-09T05:24:58.912Z,100344.91
2022-11-09T05:26:01.422Z,100337.75
2022-11-09T05:27:04.923Z,100336.78
2022-11-09T05:28:09.496Z,100336.78
2022-11-09T05:29:14.291Z,100339.44
2022-11-09T05:30:15.961Z,100334.94
2022-11-09T05:31:18.494Z,100337.44
2022-11-09T05:32:21.078Z,100332.09
2022-11-09T05:33:22.932Z,100345.31
2022-11-09T05:34:25.756Z,100343.47
2022-11-09T05:35:27.372Z,100341.47
2022-11-09T05:36:31.511Z,100344.13
2022-11-09T05:37:33.119Z,100338.78
2022-11-09T05:38:35.592Z,100344.13
2022-11-09T05:39:37.126Z,100351.16
2022-11-09T05:40:39.697Z,100348.63
2022-11-09T05:41:41.213Z,100343.16
2022-11-09T05:42:44.338Z,100336.97
2022-11-09T05:43:46.590Z,100336.13
2022-11-09T05:44:50.551Z,100331.78
2022-11-09T05:45:52.228Z,100327.44
2022-11-09T05:46:54.742Z,100326.75
2022-11-09T05:47:56.359Z,100322.44
2022-11-09T05:48:58.861Z,100315.41
2022-11-09T05:50:00.454Z,100322.56
2022-11-09T05:51:03.542Z,100316.41
2022-11-09T05:52:05.571Z,100319.25
2022-11-09T05:53:08.285Z,100319.06
2022-11-09T05:54:10.036Z,100313.06
2022-11-09T05:55:12.567Z,100315.88
2022-11-09T05:56:16.226Z,100313.38
2022-11-09T05:57:17.713Z,100316.06
2022-11-09T05:58:20.192Z,100314.38
2022-11-09T05:59:21.770Z,100311.69
2022-11-09T06:00:26.017Z,100305.53
2022-11-09T06:01:28.508Z,100312.84
2022-11-09T06:02:31.201Z,100314.69
2022-11-09T06:03:34.019Z,100320.03
2022-11-09T06:04:36.544Z,100314.03
2022-11-09T06:05:39.746Z,100314.03
2022-11-09T06:06:44.151Z,100315.66
2022-11-09T06:07:45.820Z,100309.50
2022-11-09T06:08:48.297Z,100315.66
2022-11-09T06:09:50.258Z,100310.34
2022-11-09T06:10:59.206Z,100325.38
2022-11-09T06:12:00.776Z,100314.69
2022-11-09T06:13:03.943Z,100321.72
2022-11-09T06:14:05.491Z,100321.72
2022-11-09T06:15:09.024Z,100319.03
2022-11-09T06:16:12.054Z,100320.03
2022-11-09T06:17:14.561Z,100318.19
2022-11-09T06:18:17.091Z,100320.69
2022-11-09T06:19:18.666Z,100326.88
2022-11-09T06:20:21.761Z,100319.72
2022-11-09T06:21:24.404Z,100322.38
2022-11-09T06:22:26.033Z,100323.38
2022-11-09T06:23:30.199Z,100331.38
2022-11-09T06:24:31.919Z,100326.88
2022-11-09T06:25:34.407Z,100326.03
2022-11-09T06:26:36.052Z,100325.22
2022-11-09T06:27:38.581Z,100335.72
2022-11-09T06:28:41.245Z,100328.69
2022-11-09T06:29:43.785Z,100339.22
2022-11-09T06:30:45.444Z,100333.06
2022-11-09T06:31:51.246Z,100331.38
2022-11-09T06:32:59.149Z,100336.72
2022-11-09T06:34:01.711Z,100335.06
2022-11-09T06:35:03.799Z,100342.03
2022-11-09T06:36:06.834Z,100342.22
2022-11-09T06:37:08.489Z,100341.22
2022-11-09T06:38:11.680Z,100341.38
2022-11-09T06:39:13.272Z,100344.03
2022-11-09T06:40:15.915Z,100345.88
2022-11-09T06:41:19.037Z,100347.69
2022-11-09T06:42:20.568Z,100344.88
2022-11-09T06:43:23.784Z,100345.03
2022-11-09T06:44:26.325Z,100350.22
2022-11-09T06:45:28.830Z,100353.03
2022-11-09T06:46:31.494Z,100350.38
2022-11-09T06:47:34.415Z,100354.72
2022-11-09T06:48:37.113Z,100351.06
2022-11-09T06:49:38.907Z,100352.91
2022-11-09T06:50:41.818Z,100352.19
2022-11-09T06:51:43.550Z,100352.06
2022-11-09T06:52:46.440Z,100363.72
2022-11-09T06:53:48.125Z,100362.72
2022-11-09T06:54:50.961Z,100365.41
2022-11-09T06:55:53.964Z,100363.72
2022-11-09T06:56:56.552Z,100352.19
2022-11-09T06:57:58.985Z,100363.72
2022-11-09T06:59:01.620Z,100361.22
2022-11-09T07:00:05.144Z,100367.41
2022-11-09T07:01:12.209Z,100370.06
2022-11-09T07:02:16.584Z,100374.56
2022-11-09T07:03:22.871Z,100374.56
2022-11-09T07:04:24.707Z,100384.41
2022-11-09T07:05:27.372Z,100376.38
2022-11-09T07:06:29.066Z,100378.06
2022-11-09T07:07:32.408Z,100383.41
2022-11-09T07:08:35.362Z,100380.75
2022-11-09T07:09:37.929Z,100387.06
2022-11-09T07:10:40.233Z,100383.56
2022-11-09T07:11:42.758Z,100392.41
2022-11-09T07:12:44.443Z,100394.41
2022-11-09T07:13:52.274Z,100395.38
2022-11-09T07:14:56.464Z,100398.38
2022-11-09T07:15:59.014Z,100399.53
2022-11-09T07:17:00.635Z,100395.47
2022-11-09T07:18:05.399Z,100396.63
2022-11-09T07:19:09.372Z,100401.28
2022-11-09T07:20:11.974Z,100399.91
2022-11-09T07:21:15.333Z,100405.53
2022-11-09T07:22:16.978Z,100402.22
2022-11-09T07:23:20.088Z,100399.00
2022-11-09T07:24:22.278Z,100395.66
2022-11-09T07:25:27.141Z,100402.13
2022-11-09T07:26:28.713Z,100399.75
2022-11-09T07:27:31.309Z,100399.09
2022-11-09T07:28:34.109Z,100400.25
2022-11-09T07:29:36.658Z,100407.41
2022-11-09T07:30:38.878Z,100411.03
2022-11-09T07:31:41.361Z,100410.38
2022-11-09T07:34:05.613Z,100405.50
2022-11-09T07:35:09.853Z,100404.66
2022-11-09T07:36:14.610Z,100400.31
2022-11-09T07:37:19.924Z,100404.09
2022-11-09T07:38:22.446Z,100410.28
2022-11-09T07:39:24.011Z,100398.94
2022-11-09T07:40:26.587Z,100399.94
2022-11-09T07:41:34.349Z,100399.25
2022-11-09T07:42:36.362Z,100397.44
2022-11-09T07:43:38.939Z,100405.56
2022-11-09T07:44:40.578Z,100410.91
2022-11-09T07:45:43.146Z,100408.41
2022-11-09T07:46:46.218Z,100409.22
2022-11-09T07:47:48.752Z,100409.22
2022-11-09T07:48:51.344Z,100410.22
2022-11-09T07:49:54.024Z,100413.88
2022-11-09T07:51:01.632Z,100408.41
2022-11-09T07:52:03.586Z,100410.22
2022-11-09T07:53:07.997Z,100411.22
2022-11-09T07:54:13.544Z,100415.56
2022-11-09T07:55:16.252Z,100412.88
2022-11-09T07:56:18.819Z,100412.88
2022-11-09T07:57:22.668Z,100414.53
2022-11-09T07:58:24.448Z,100408.53
2022-11-09T07:59:26.984Z,100413.72
2022-11-09T08:00:30.495Z,100416.41
2022-11-09T08:01:33.235Z,100418.22
2022-11-09T08:02:35.158Z,100422.53
2022-11-09T08:03:37.951Z,100419.88
2022-11-09T08:04:39.597Z,100421.56
2022-11-09T08:05:42.329Z,100416.22
2022-11-09T08:06:46.425Z,100422.41
2022-11-09T08:07:48.039Z,100417.06
2022-11-09T08:08:50.778Z,100416.22
2022-11-09T08:09:52.638Z,100423.25
2022-11-09T08:10:57.915Z,100416.09
2022-11-09T08:11:59.523Z,100429.44
2022-11-09T08:13:04.456Z,100419.59
2022-11-09T08:14:05.999Z,100427.59
2022-11-09T08:15:10.690Z,100427.59
2022-11-09T08:16:13.385Z,100427.59
2022-11-09T08:17:15.079Z,100419.59
2022-11-09T08:18:20.729Z,100421.25
2022-11-09T08:19:22.499Z,100431.09
2022-11-09T08:20:25.019Z,100430.94
2022-11-09T08:21:26.649Z,100433.59
2022-11-09T08:22:30.483Z,100428.28
2022-11-09T08:23:33.041Z,100440.63
2022-11-09T08:24:35.688Z,100430.09
2022-11-09T08:25:37.378Z,100431.63
2022-11-09T08:26:39.940Z,100435.13
2022-11-09T08:27:41.684Z,100429.66
2022-11-09T08:28:44.167Z,100436.66
2022-11-09T08:29:45.804Z,100433.00
2022-11-09T08:30:56.933Z,100437.34
2022-11-09T08:31:59.467Z,100440.84
2022-11-09T08:33:03.557Z,100441.66
2022-11-09T08:34:06.143Z,100440.69
2022-11-09T08:35:10.176Z,100443.34
2022-11-09T08:36:16.349Z,100445.03
2022-11-09T08:37:19.299Z,100446.72
2022-11-09T08:38:23.934Z,100443.91
2022-11-09T08:39:26.754Z,100445.59
2022-11-09T08:40:29.627Z,100444.44
2022-11-09T08:41:32.141Z,100439.78
2022-11-09T08:42:33.780Z,100448.31
2022-11-09T08:43:36.540Z,100445.50
2022-11-09T08:44:38.107Z,100443.50
2022-11-09T08:45:42.026Z,100447.69
2022-11-09T08:46:44.601Z,100448.41
2022-11-09T08:47:47.601Z,100456.09
2022-11-09T08:48:50.103Z,100447.91
2022-11-09T08:49:51.601Z,100447.78
2022-11-09T08:50:55.200Z,100442.28
2022-11-09T08:51:57.708Z,100445.66
2022-11-09T08:53:01.364Z,100443.66
2022-11-09T08:54:05.596Z,100449.69
2022-11-09T08:55:09.360Z,100450.50
2022-11-09T08:56:12.848Z,100445.03
2022-11-09T08:57:14.649Z,100449.38
2022-11-09T08:58:17.483Z,100463.25
2022-11-09T08:59:20.220Z,100456.91
2022-11-09T09:00:22.367Z,100456.75
2022-11-09T09:01:25.204Z,100453.94
2022-11-09T09:02:26.891Z,100453.78
2022-11-09T09:03:30.657Z,100450.94
2022-11-09T09:04:32.322Z,100454.16
2022-11-09T09:05:36.097Z,100451.34
2022-11-09T09:06:37.761Z,100453.84
2022-11-09T09:07:40.419Z,100456.22
2022-11-09T09:08:43.007Z,100455.22
2022-11-09T09:09:45.962Z,100454.22
2022-11-09T09:10:48.713Z,100454.91
2022-11-09T09:11:51.250Z,100452.75
2022-11-09T09:12:54.100Z,100456.13
2022-11-09T09:13:55.695Z,100449.63
2022-11-09T09:14:58.261Z,100454.78
2022-11-09T09:16:10.192Z,100454.47
2022-11-09T09:17:12.972Z,100449.97
2022-11-09T09:18:15.704Z,100457.00
2022-11-09T09:19:18.062Z,100452.34
2022-11-09T09:20:20.738Z,100450.50
2022-11-09T09:21:23.319Z,100453.03
2022-11-09T09:22:24.830Z,100453.72
2022-11-09T09:23:27.381Z,100461.41
2022-11-09T09:24:30.040Z,100457.75
2022-11-09T09:25:34.022Z,100459.25
2022-11-09T09:26:35.845Z,100465.31
2022-11-09T09:27:38.794Z,100457.13
2022-11-09T09:28:41.379Z,100459.78
2022-11-09T09:29:43.988Z,100458.78
2022-11-09T09:30:46.555Z,100465.81
2022-11-09T09:31:49.192Z,100461.31
2022-11-09T09:32:51.770Z,100467.50
2022-11-09T09:33:53.420Z,100463.00
2022-11-09T09:34:56.126Z,100467.50
2022-11-09T09:35:59.911Z,100465.81
2022-11-09T09:37:02.596Z,100448.13
2022-11-09T09:38:05.202Z,100464.13
2022-11-09T09:39:07.757Z,100469.47
2022-11-09T09:40:24.673Z,100469.47
2022-11-09T09:41:37.072Z,100466.81
2022-11-09T09:42:45.173Z,100468.63
2022-11-09T09:43:50.270Z,100467.78
2022-11-09T09:44:57.796Z,100469.47
2022-11-09T09:46:03.232Z,100473.84
2022-11-09T09:47:13.096Z,100475.53
2022-11-09T09:48:25.945Z,100477.34
2022-11-09T09:49:31.901Z,100478.19
2022-11-09T09:50:41.784Z,100483.53
2022-11-09T09:51:49.615Z,100487.19
2022-11-09T09:53:23.249Z,100484.53
2022-11-09T09:54:23.310Z,100485.66
2022-11-09T09:55:31.136Z,100492.00
2022-11-09T09:56:39.280Z,100489.47
2022-11-09T09:57:44.360Z,100491.31
2022-11-09T09:58:51.383Z,100490.47
2022-11-09T09:59:57.511Z,100498.47
2022-11-09T10:01:05.730Z,100498.66
2022-11-09T10:02:18.806Z,100496.81
2022-11-09T10:03:22.378Z,100507.31
2022-11-09T10:04:29.661Z,100501.16
2022-11-09T10:05:47.266Z,100501.84
2022-11-09T10:07:07.818Z,100501.00
2022-11-09T10:08:16.233Z,100516.84
2022-11-09T10:09:28.523Z,100495.50
2022-11-09T10:10:44.385Z,100505.19
2022-11-09T10:12:00.977Z,100503.50
2022-11-09T10:13:23.216Z,100498.16
2022-11-09T10:14:51.014Z,100508.84
2022-11-09T10:15:59.635Z,100506.34
2022-11-09T10:17:12.142Z,100523.22
2022-11-09T10:18:26.772Z,100510.00
2022-11-09T10:19:41.788Z,100506.50
2022-11-09T10:21:10.899Z,100505.66
2022-11-09T10:22:20.878Z,100511.16
2022-11-09T10:23:45.670Z,100512.16
2022-11-09T10:26:22.490Z,100515.97
2022-11-09T10:27:36.223Z,100516.94
2022-11-09T10:29:13.949Z,100517.13
2022-11-09T10:30:14.996Z,100508.41
2022-11-09T10:31:20.841Z,100512.94
2022-11-09T10:32:24.730Z,100512.09
2022-11-09T10:33:29.322Z,100519.09
2022-11-09T10:34:39.088Z,100519.09
2022-11-09T10:35:46.327Z,100519.09
2022-11-09T10:36:57.685Z,100512.63
2022-11-09T10:38:00.219Z,100513.44
2022-11-09T10:39:02.841Z,100529.47
2022-11-09T10:40:16.778Z,100517.97
2022-11-09T10:41:28.744Z,100513.44
2022-11-09T10:42:32.618Z,100517.13
2022-11-09T10:43:34.247Z,100527.81
2022-11-09T10:44:36.945Z,100520.47
2022-11-09T10:45:41.729Z,100527.50
2022-11-09T10:47:04.554Z,100529.31
2022-11-09T10:48:08.874Z,100532.00
2022-11-09T10:49:20.967Z,100522.81
2022-11-09T10:50:28.759Z,100530.84
2022-11-09T10:51:39.743Z,100527.19
2022-11-09T10:52:47.314Z,100527.19
2022-11-09T10:54:11.987Z,100527.84
2022-11-09T10:55:23.665Z,100522.50
2022-11-09T10:56:32.944Z,100519.84
2022-11-09T10:57:52.014Z,100532.22
2022-11-09T10:58:54.856Z,100524.19
2022-11-09T10:59:59.135Z,100526.88
2022-11-09T11:01:04.279Z,100519.69
2022-11-09T11:02:52.622Z,100518.72
2022-11-09T11:03:57.339Z,100522.50
2022-11-09T11:05:22.278Z,100514.50
2022-11-09T11:06:31.295Z,100521.53
2022-11-09T11:07:34.260Z,100517.03
2022-11-09T11:08:39.854Z,100527.53
2022-11-09T11:09:41.394Z,100525.72
2022-11-09T11:10:43.920Z,100527.41
2022-11-09T11:11:46.740Z,100523.75
2022-11-09T11:13:18.845Z,100526.56
2022-11-09T11:14:27.851Z,100524.59
2022-11-09T11:15:37.171Z,100523.75
2022-11-09T11:16:41.361Z,100536.13
2022-11-09T11:17:42.932Z,100526.28
2022-11-09T11:18:47.874Z,100535.00
2022-11-09T11:19:50.546Z,100532.31
2022-11-09T11:21:08.425Z,100526.97
2022-11-09T11:22:22.787Z,100532.16
2022-11-09T11:23:27.010Z,100529.47
2022-11-09T11:24:42.744Z,100536.50
2022-11-09T11:26:01.873Z,100540.00
2022-11-09T11:27:11.268Z,100532.69
2022-11-09T11:28:22.736Z,100525.66
2022-11-09T11:29:38.381Z,100536.31
2022-11-09T11:30:40.903Z,100537.19
2022-11-09T11:31:43.430Z,100540.69
2022-11-09T11:32:50.395Z,100534.34
2022-11-09T11:33:53.540Z,100534.34
2022-11-09T11:35:00.629Z,100528.19
2022-11-09T11:36:15.232Z,100524.50
2022-11-09T11:37:31.128Z,100523.69
2022-11-09T11:38:38.923Z,100531.69
2022-11-09T11:39:57.140Z,100525.31
2022-11-09T11:41:20.647Z,100523.69
2022-11-09T11:42:42.764Z,100525.31
2022-11-09T11:43:54.132Z,100525.31
2022-11-09T11:45:38.989Z,100534.03
2022-11-09T11:46:48.059Z,100534.03
2022-11-09T11:48:03.963Z,100541.88
2022-11-09T11:49:28.287Z,100528.53
2022-11-09T11:50:41.919Z,100527.69
2022-11-09T11:51:52.986Z,100532.03
2022-11-09T11:53:09.703Z,100534.56
2022-11-09T11:54:20.881Z,100537.06
2022-11-09T11:55:38.941Z,100531.59
2022-11-09T11:56:46.694Z,100530.44
2022-11-09T11:58:00.850Z,100530.25
2022-11-09T11:59:23.521Z,100532.78
2022-11-09T12:00:26.339Z,100529.97
2022-11-09T12:01:45.269Z,100541.16
2022-11-09T12:03:32.377Z,100540.88
2022-11-09T12:04:55.389Z,100538.84
2022-11-09T12:06:34.869Z,100536.53
2022-11-09T12:07:43.105Z,100544.09
2022-11-09T12:09:04.073Z,100543.63
2022-11-09T12:10:32.788Z,100543.97
2022-11-09T12:11:47.476Z,100547.84
2022-11-09T12:13:01.379Z,100544.56
2022-11-09T12:14:19.835Z,100541.25
2022-11-09T12:15:31.129Z,100541.44
2022-11-09T12:16:40.732Z,100551.50
2022-11-09T12:17:49.735Z,100541.13
2022-11-09T12:19:01.786Z,100543.34
2022-11-09T12:20:20.181Z,100556.38
2022-11-09T12:21:29.818Z,100536.66
2022-11-09T12:22:41.588Z,100546.34
2022-11-09T12:24:09.570Z,100543.53